Time;durP1;ratioP1;P1;durP2;ratioP2;P2;SDS_P1;SDS_P2;PMS_P1;PMS_P2;Temp;Humidity;BMP_temperature;BMP_pressure;BME280_temperature;BME280_humidity;BME280_pressure;Samples;Min_cycle;Max_cycle;Signal;HPM_P1;HPM_P2
2020/12/30 00:00:35;;;;;;;1999.90;999.90;;;;;;;0.55;100.00;101515.30;1754506;81;21145;-70
2020/12/30 00:03:03;;;;;;;1999.90;999.90;;;;;;;0.54;100.00;101514.47;1744278;81;21585;-63
2020/12/30 00:05:30;;;;;;;1999.90;999.90;;;;;;;0.53;100.00;101510.61;1746986;81;21817;-64
2020/12/30 00:07:58;;;;;;;1999.90;999.90;;;;;;;0.54;100.00;101512.27;1751848;81;21012;-63
2020/12/30 00:10:26;;;;;;;1999.90;999.90;;;;;;;0.53;100.00;101508.72;1741624;81;20982;-68
2020/12/30 00:12:54;;;;;;;1999.90;999.90;;;;;;;0.52;100.00;101515.22;1748685;81;21158;-63
2020/12/30 00:15:21;;;;;;;1999.90;999.90;;;;;;;0.52;100.00;101512.50;1745725;81;21540;-64
2020/12/30 00:17:49;;;;;;;1999.90;999.90;;;;;;;0.52;100.00;101509.77;1750620;81;21371;-73
2020/12/30 00:20:18;;;;;;;1999.90;999.90;;;;;;;0.54;100.00;101509.55;1752505;81;21568;-63
2020/12/30 00:22:46;;;;;;;1999.90;999.90;;;;;;;0.52;100.00;101516.58;1744555;81;21121;-62
2020/12/30 00:25:14;;;;;;;1999.90;999.90;;;;;;;0.49;100.00;101500.67;1752781;81;21082;-73
2020/12/30 00:27:43;;;;;;;1999.90;999.90;;;;;;;0.50;100.00;101514.60;1750488;81;21089;-73
2020/12/30 00:30:13;;;;;;;1999.90;999.90;;;;;;;0.49;100.00;101517.55;1742762;81;21388;-63
2020/12/30 00:32:42;;;;;;;1999.90;999.90;;;;;;;0.47;100.00;101512.31;1752193;81;20970;-63
2020/12/30 00:35:10;;;;;;;1999.90;999.90;;;;;;;0.47;100.00;101515.04;1765645;81;21276;-72
2020/12/30 00:37:38;;;;;;;1999.90;999.90;;;;;;;0.47;100.00;101516.41;1750840;81;21243;-73
2020/12/30 00:40:06;;;;;;;1999.90;999.90;;;;;;;0.48;100.00;101511.79;1747417;81;21069;-63
2020/12/30 00:42:35;;;;;;;1999.90;999.90;;;;;;;0.46;100.00;101514.73;1737367;81;21556;-73
2020/12/30 00:45:04;;;;;;;1999.90;999.90;;;;;;;0.47;100.00;101515.56;1742236;81;21502;-73
2020/12/30 00:47:32;;;;;;;1999.90;999.90;;;;;;;0.46;100.00;101508.45;1736781;81;21533;-73
2020/12/30 00:50:00;;;;;;;1999.90;999.90;;;;;;;0.46;100.00;101523.43;1733282;81;21089;-73
2020/12/30 00:52:28;;;;;;;1999.90;999.90;;;;;;;0.45;100.00;101514.42;1734751;81;21541;-72
2020/12/30 00:54:56;;;;;;;1999.90;999.90;;;;;;;0.44;100.00;101514.12;1737376;81;22261;-63
2020/12/30 00:57:29;;;;;;;1999.90;999.90;;;;;;;0.42;100.00;101508.05;1736033;81;21494;-63
2020/12/30 00:59:57;;;;;;;1999.90;999.90;;;;;;;0.44;100.00;101511.92;1743789;81;21125;-63
2020/12/30 01:02:25;;;;;;;1999.90;999.90;;;;;;;0.44;100.00;101507.83;1714780;81;21580;-72
2020/12/30 01:04:53;;;;;;;1999.90;999.90;;;;;;;0.42;100.00;101488.98;1730413;81;21094;-63
2020/12/30 01:07:20;;;;;;;1999.90;999.90;;;;;;;0.43;100.00;101485.73;1733758;81;21355;-72
2020/12/30 01:09:48;;;;;;;1999.90;999.90;;;;;;;0.40;100.00;101487.01;1733744;81;21093;-63
2020/12/30 01:12:16;;;;;;;1999.90;999.90;;;;;;;0.39;100.00;101473.09;1734413;81;21105;-70
2020/12/30 01:14:44;;;;;;;1999.90;999.90;;;;;;;0.36;100.00;101447.66;1751150;81;21074;-63
2020/12/30 01:17:12;;;;;;;1999.90;999.90;;;;;;;0.34;100.00;101427.98;1761486;80;21490;-63
2020/12/30 01:19:40;;;;;;;1999.90;999.90;;;;;;;0.31;100.00;101417.00;1764772;80;21736;-72
2020/12/30 01:22:07;;;;;;;1999.90;999.90;;;;;;;0.30;100.00;101418.05;1764496;80;21149;-64
2020/12/30 01:24:35;;;;;;;1999.90;999.90;;;;;;;0.33;100.00;101428.20;1761543;80;21024;-63
2020/12/30 01:27:03;;;;;;;1999.90;999.90;;;;;;;0.36;100.00;101435.93;1766334;80;21506;-64
2020/12/30 01:29:31;;;;;;;1999.90;999.90;;;;;;;0.35;100.00;101428.81;1768967;80;21104;-70
2020/12/30 01:31:58;;;;;;;1999.90;999.90;;;;;;;0.36;100.00;101439.48;1773619;80;22274;-71
2020/12/30 01:34:26;;;;;;;1999.90;999.90;;;;;;;0.39;100.00;101451.30;1769232;80;21475;-63
2020/12/30 01:36:54;;;;;;;1999.90;999.90;;;;;;;0.41;100.00;101449.19;1770310;80;21551;-73
2020/12/30 01:39:22;;;;;;;1999.90;999.90;;;;;;;0.42;100.00;101444.58;1768609;80;21614;-72
2020/12/30 01:41:50;;;;;;;1999.90;999.90;;;;;;;0.41;100.00;101446.47;1739172;81;21122;-64
2020/12/30 01:44:17;;;;;;;1999.90;999.90;;;;;;;0.42;100.00;101442.69;1729569;81;21487;-63
2020/12/30 01:46:47;;;;;;;1999.90;999.90;;;;;;;0.45;100.00;101446.86;1749300;81;21543;-63
2020/12/30 01:49:20;;;;;;;1999.90;999.90;;;;;;;0.44;100.00;101431.05;1730902;81;21722;-72
2020/12/30 01:51:53;;;;;;;1999.90;999.90;;;;;;;0.42;100.00;101434.52;1771223;80;21176;-69
2020/12/30 01:54:20;;;;;;;1999.90;999.90;;;;;;;0.41;100.00;101434.21;1732486;81;21091;-72
2020/12/30 01:56:48;;;;;;;1999.90;999.90;;;;;;;0.40;100.00;101423.02;1768795;79;22073;-71
2020/12/30 01:59:18;;;;;;;1999.90;999.90;;;;;;;0.41;100.00;101422.48;1758648;80;21151;-63
2020/12/30 02:02:05;;;;;;;1999.90;999.90;;;;;;;0.42;100.00;101424.98;1731607;81;21615;-63
2020/12/30 02:04:52;;;;;;;1999.90;999.90;;;;;;;0.41;100.00;101432.85;1762264;80;21525;-71
2020/12/30 02:07:22;;;;;;;1999.90;999.90;;;;;;;0.44;100.00;101430.22;1740083;81;21106;-63
2020/12/30 02:09:51;;;;;;;1999.90;999.90;;;;;;;0.43;100.00;101425.30;1766374;80;21374;-73
2020/12/30 02:12:19;;;;;;;1999.90;999.90;;;;;;;0.44;100.00;101428.86;1736872;81;21157;-63
2020/12/30 02:14:47;;;;;;;1999.90;999.90;;;;;;;0.47;100.00;101437.95;1736097;81;21548;-63
2020/12/30 02:17:15;;;;;;;1999.90;999.90;;;;;;;0.48;100.00;101447.78;1747509;81;21112;-72
2020/12/30 02:19:45;;;;;;;1999.90;999.90;;;;;;;0.52;100.00;101470.80;1733487;81;21226;-63
2020/12/30 02:22:16;;;;;;;1999.90;999.90;;;;;;;0.54;100.00;101462.72;1750324;81;21385;-71
2020/12/30 02:24:45;;;;;;;1999.90;999.90;;;;;;;0.56;100.00;101464.70;1747311;81;21108;-72
2020/12/30 02:27:13;;;;;;;1999.90;999.90;;;;;;;0.58;100.00;101491.72;1750725;81;21046;-63
2020/12/30 02:29:41;;;;;;;1999.90;999.90;;;;;;;0.59;100.00;101499.67;1733149;81;21655;-71
2020/12/30 02:32:08;;;;;;;1999.90;999.90;;;;;;;0.61;100.00;101492.11;1751099;81;21091;-69
2020/12/30 02:34:36;;;;;;;1999.90;999.90;;;;;;;0.59;100.00;101508.37;1743613;81;21372;-64
2020/12/30 02:37:04;;;;;;;1999.90;999.90;;;;;;;0.60;100.00;101516.31;1750022;81;21545;-64
2020/12/30 02:39:32;;;;;;;1999.90;999.90;;;;;;;0.61;100.00;101515.27;1738572;81;21725;-71
2020/12/30 02:42:00;;;;;;;1999.90;999.90;;;;;;;0.64;100.00;101516.19;1747416;81;21097;-63
2020/12/30 02:44:27;;;;;;;1999.90;999.90;;;;;;;0.67;100.00;101522.25;1738937;81;21139;-63
2020/12/30 02:46:55;;;;;;;1999.90;999.90;;;;;;;0.66;100.00;101504.23;1739082;81;22263;-71
2020/12/30 02:49:23;;;;;;;1999.90;999.90;;;;;;;0.63;100.00;101503.63;1746381;81;21565;-72
2020/12/30 02:51:50;;;;;;;1999.90;999.90;;;;;;;0.60;100.00;101510.03;1743925;81;21085;-72
2020/12/30 02:54:18;;;;;;;1999.90;999.90;;;;;;;0.56;100.00;101498.75;1736895;81;21117;-71
2020/12/30 02:56:46;;;;;;;1999.90;999.90;;;;;;;0.53;100.00;101482.00;1747680;81;21105;-63
2020/12/30 02:59:14;;;;;;;1999.90;999.90;;;;;;;0.50;100.00;101479.19;1749434;81;21215;-72
2020/12/30 03:01:44;;;;;;;1999.90;999.90;;;;;;;0.49;100.00;101472.08;1733869;81;21101;-72
2020/12/30 03:04:12;;;;;;;1999.90;999.90;;;;;;;0.51;100.00;101474.58;1728836;81;20952;-64
2020/12/30 03:06:40;;;;;;;1999.90;999.90;;;;;;;0.53;100.00;101483.37;1737220;81;21078;-65
2020/12/30 03:09:08;;;;;;;1999.90;999.90;;;;;;;0.54;100.00;101504.10;1742245;81;21117;-64
2020/12/30 03:11:36;;;;;;;1999.90;999.90;;;;;;;0.54;100.00;101503.58;1742972;81;21213;-65
2020/12/30 03:14:04;;;;;;;1999.90;999.90;;;;;;;0.50;100.00;101480.55;1744145;81;21550;-64
2020/12/30 03:16:31;;;;;;;1999.90;999.90;;;;;;;0.48;100.00;101485.91;1737384;81;21185;-64
2020/12/30 03:18:59;;;;;;;1999.90;999.90;;;;;;;0.51;100.00;101496.38;1747238;81;21609;-72
2020/12/30 03:21:27;;;;;;;1999.90;999.90;;;;;;;0.57;100.00;101509.95;1738234;81;21070;-72
2020/12/30 03:23:54;;;;;;;1999.90;999.90;;;;;;;0.62;100.00;101513.38;1746377;81;22286;-72
2020/12/30 03:26:23;;;;;;;1999.90;999.90;;;;;;;0.61;100.00;101513.06;1738771;81;21116;-66
2020/12/30 03:28:51;;;;;;;1999.90;999.90;;;;;;;0.58;100.00;101494.44;1745263;81;21530;-72
2020/12/30 03:31:19;;;;;;;1999.90;999.90;;;;;;;0.58;100.00;101508.06;1736899;81;21082;-67
2020/12/30 03:33:47;;;;;;;1999.90;999.90;;;;;;;0.61;100.00;101511.70;1739543;81;21106;-71
2020/12/30 03:36:14;;;;;;;1999.90;999.90;;;;;;;0.62;100.00;101504.67;1739059;81;21382;-64
2020/12/30 03:38:42;;;;;;;1999.90;999.90;;;;;;;0.62;100.00;101493.78;1741653;81;21111;-72
2020/12/30 03:41:10;;;;;;;1999.90;999.90;;;;;;;0.62;100.00;101488.33;1736163;81;21129;-70
2020/12/30 03:43:38;;;;;;;1999.90;999.90;;;;;;;0.59;100.00;101477.87;1733831;82;21149;-71
2020/12/30 03:46:06;;;;;;;1999.90;999.90;;;;;;;0.58;100.00;101487.10;1725213;82;21516;-70
2020/12/30 03:48:34;;;;;;;1999.90;999.90;;;;;;;0.56;100.00;101467.42;1732139;82;21402;-72
2020/12/30 03:51:02;;;;;;;1999.90;999.90;;;;;;;0.58;100.00;101478.09;1737342;82;21083;-64
2020/12/30 03:53:29;;;;;;;1999.90;999.90;;;;;;;0.60;100.00;101481.44;1731379;82;21554;-72
2020/12/30 03:55:57;;;;;;;1999.90;999.90;;;;;;;0.61;100.00;101488.02;1726517;82;21118;-65
2020/12/30 03:58:25;;;;;;;1999.90;999.90;;;;;;;0.62;100.00;101481.52;1732726;82;21098;-63
2020/12/30 04:00:53;;;;;;;1999.90;999.90;;;;;;;0.63;100.00;101475.02;1731368;82;21376;-71
2020/12/30 04:03:21;;;;;;;1999.90;999.90;;;;;;;0.61;100.00;101473.04;1728206;82;21085;-72
2020/12/30 04:05:50;;;;;;;1999.90;999.90;;;;;;;0.58;100.00;101487.10;1730353;82;21139;-64
2020/12/30 04:08:19;;;;;;;1999.90;999.90;;;;;;;0.59;100.00;101493.38;1731518;82;21113;-71
2020/12/30 04:10:46;;;;;;;1999.90;999.90;;;;;;;0.59;100.00;101486.05;1725654;82;21119;-71
2020/12/30 04:13:14;;;;;;;1999.90;999.90;;;;;;;0.61;100.00;101494.83;1729465;82;21401;-72
2020/12/30 04:15:46;;;;;;;1999.90;999.90;;;;;;;0.57;100.00;101481.34;1733269;82;21554;-71
2020/12/30 04:18:14;;;;;;;1999.90;999.90;;;;;;;0.54;100.00;101485.88;1728220;82;21557;-72
2020/12/30 04:20:42;;;;;;;1999.90;999.90;;;;;;;0.55;100.00;101497.60;1729835;82;21126;-64
2020/12/30 04:23:10;;;;;;;1999.90;999.90;;;;;;;0.56;100.00;101510.16;1732964;82;21057;-63
2020/12/30 04:25:37;;;;;;;1999.90;999.90;;;;;;;0.57;100.00;101511.31;1733152;82;22161;-66
2020/12/30 04:28:05;;;;;;;1999.90;999.90;;;;;;;0.59;100.00;101520.63;1734322;82;21103;-64
2020/12/30 04:30:33;;;;;;;1999.90;999.90;;;;;;;0.62;100.00;101516.94;1727732;82;21090;-70
2020/12/30 04:33:01;;;;;;;1999.90;999.90;;;;;;;0.58;100.00;101506.70;1731624;82;21154;-72
2020/12/30 04:35:28;;;;;;;1999.90;999.90;;;;;;;0.56;100.00;101507.45;1729265;82;21533;-72
2020/12/30 04:37:56;;;;;;;1999.90;999.90;;;;;;;0.52;100.00;101502.13;1726989;82;21391;-64
2020/12/30 04:40:24;;;;;;;1999.90;999.90;;;;;;;0.51;100.00;101509.98;1728321;81;21138;-64
2020/12/30 04:42:52;;;;;;;1999.90;999.90;;;;;;;0.49;100.00;101510.21;1745633;81;21518;-64
2020/12/30 04:45:19;;;;;;;1999.90;999.90;;;;;;;0.46;100.00;101513.89;1744262;81;21075;-65
2020/12/30 04:47:48;;;;;;;1999.90;999.90;;;;;;;0.47;100.00;101506.03;1749383;81;21098;-64
2020/12/30 04:50:16;;;;;;;1999.90;999.90;;;;;;;0.46;100.00;101521.54;1746460;81;21645;-64
2020/12/30 04:52:44;;;;;;;1999.90;999.90;;;;;;;0.48;100.00;101514.52;1747288;81;21555;-64
2020/12/30 04:55:11;;;;;;;1999.90;999.90;;;;;;;0.47;100.00;101516.41;1709756;81;21101;-70
2020/12/30 04:58:06;;;;;;;1999.90;999.90;;;;;;;0.46;100.00;101517.98;1713596;81;21074;-63
2020/12/30 05:00:37;;;;;;;1999.90;999.90;;;;;;;0.46;100.00;101509.81;1739063;81;21073;-71
2020/12/30 05:03:09;;;;;;;1999.90;999.90;;;;;;;0.45;100.00;101536.73;1753619;81;22270;-71
2020/12/30 05:05:37;;;;;;;1999.90;999.90;;;;;;;0.45;100.00;101522.59;1736427;81;20943;-71
2020/12/30 05:08:13;;;;;;;1999.90;999.90;;;;;;;0.43;100.00;101521.98;1742963;81;21095;-64
2020/12/30 05:10:42;;;;;;;1999.90;999.90;;;;;;;0.43;100.00;101529.31;1740678;81;21117;-71
2020/12/30 05:13:10;;;;;;;1999.90;999.90;;;;;;;0.42;100.00;101529.00;1743868;81;21387;-64
2020/12/30 05:15:38;;;;;;;1999.90;999.90;;;;;;;0.40;100.00;101529.75;1742027;81;22289;-70
2020/12/30 05:18:07;;;;;;;1999.90;999.90;;;;;;;0.38;100.00;101536.77;1719739;81;21122;-64
2020/12/30 05:20:36;;;;;;;1999.90;999.90;;;;;;;0.40;100.00;101532.47;1745961;81;21098;-64
2020/12/30 05:23:05;;;;;;;1999.90;999.90;;;;;;;0.40;100.00;101533.84;1739279;81;21168;-72
2020/12/30 05:25:36;;;;;;;1999.90;999.90;;;;;;;0.38;100.00;101539.50;1744329;81;21078;-71
2020/12/30 05:28:13;;;;;;;1999.90;999.90;;;;;;;0.42;100.00;101538.01;1893906;73;22352;-63
2020/12/30 05:30:42;;;;;;;1999.90;999.90;;;;;;;0.39;100.00;101534.89;1847947;76;20976;-71
2020/12/30 05:33:10;;;;;;;1999.90;999.90;;;;;;;0.38;100.00;101525.88;1839452;77;21594;-71
2020/12/30 05:35:38;;;;;;;1999.90;999.90;;;;;;;0.40;100.00;101529.75;1839143;76;20952;-71
2020/12/30 05:38:06;;;;;;;1999.90;999.90;;;;;;;0.40;100.00;101533.84;1834459;77;20980;-63
2020/12/30 05:40:34;;;;;;;1999.90;999.90;;;;;;;0.39;100.00;101534.36;1843466;76;20957;-64
2020/12/30 05:43:15;;;;;;;1999.90;999.90;;;;;;;0.38;100.00;101541.39;1841469;77;20940;-70
2020/12/30 05:45:52;;;;;;;1999.90;999.90;;;;;;;0.37;100.00;101548.72;1831371;77;21582;-63
2020/12/30 05:48:22;;;;;;;1999.90;999.90;;;;;;;0.39;100.00;101544.42;1836772;77;21020;-63
2020/12/30 05:50:55;;;;;;;1999.90;999.90;;;;;;;0.39;100.00;101550.70;1833429;76;20957;-65
2020/12/30 05:53:23;;;;;;;1999.90;999.90;;;;;;;0.41;100.00;101555.92;1837021;77;20964;-72
2020/12/30 05:55:54;;;;;;;1999.90;999.90;;;;;;;0.43;100.00;101557.91;1848987;77;21507;-65
2020/12/30 05:58:22;;;;;;;1999.90;999.90;;;;;;;0.40;100.00;101551.53;1835406;77;21183;-65
2020/12/30 06:00:50;;;;;;;1999.90;999.90;;;;;;;0.39;100.00;101553.42;1806094;79;20929;-65
2020/12/30 06:03:23;;;;;;;1999.90;999.90;;;;;;;0.42;100.00;101550.79;1843242;76;20984;-65
2020/12/30 06:05:51;;;;;;;1999.90;999.90;;;;;;;0.43;100.00;101547.02;1818946;75;21506;-72
2020/12/30 06:08:19;;;;;;;1999.90;999.90;;;;;;;0.42;100.00;101547.55;1832594;77;20984;-73
2020/12/30 06:10:46;;;;;;;1999.90;999.90;;;;;;;0.40;100.00;101546.92;1802724;77;21190;-65
2020/12/30 06:13:17;;;;;;;1999.90;999.90;;;;;;;0.38;100.00;101555.84;1811256;77;20976;-65
2020/12/30 06:15:45;;;;;;;1999.90;999.90;;;;;;;0.41;100.00;101559.48;1783599;77;20969;-73
2020/12/30 06:18:12;;;;;;;1999.90;999.90;;;;;;;0.41;100.00;101549.13;1816260;77;21083;-65
2020/12/30 06:20:40;;;;;;;1999.90;999.90;;;;;;;0.39;100.00;101551.23;1782943;77;20976;-65
2020/12/30 06:23:10;;;;;;;1999.90;999.90;;;;;;;0.38;100.00;101559.09;1834595;77;21352;-73
2020/12/30 06:25:42;;;;;;;1999.90;999.90;;;;;;;0.39;100.00;101558.87;1841856;76;21118;-65
2020/12/30 06:28:21;;;;;;;1999.90;999.90;;;;;;;0.40;100.00;101557.81;1836592;76;20948;-65
2020/12/30 06:30:50;;;;;;;1999.90;999.90;;;;;;;0.40;100.00;101550.17;1829212;77;21512;-65
2020/12/30 06:33:23;;;;;;;1999.90;999.90;;;;;;;0.38;100.00;101550.91;1808163;77;21573;-72
2020/12/30 06:35:54;;;;;;;1999.90;999.90;;;;;;;0.36;100.00;101554.38;1841675;76;21427;-72
2020/12/30 06:38:26;;;;;;;1999.90;999.90;;;;;;;0.35;100.00;101567.69;1836595;77;21119;-73
2020/12/30 06:41:03;;;;;;;1999.90;999.90;;;;;;;0.37;100.00;101570.50;1840964;76;20925;-72
2020/12/30 06:43:46;;;;;;;1999.90;999.90;;;;;;;0.37;100.00;101575.12;1840089;77;20965;-73
2020/12/30 06:46:15;;;;;;;1999.90;999.90;;;;;;;0.37;100.00;101580.56;1826109;77;20953;-72
2020/12/30 06:49:04;;;;;;;1999.90;999.90;;;;;;;0.38;100.00;101576.27;1837801;76;21360;-66
2020/12/30 06:51:36;;;;;;;1999.90;999.90;;;;;;;0.39;100.00;101574.38;1830746;76;22426;-65
2020/12/30 06:54:04;;;;;;;1999.90;999.90;;;;;;;0.36;100.00;101564.75;1832941;77;20952;-72
2020/12/30 06:56:44;;;;;;;1999.90;999.90;;;;;;;0.37;100.00;101560.97;1821599;77;21083;-65
2020/12/30 06:59:17;;;;;;;1999.90;999.90;;;;;;;0.38;100.00;101564.53;1832597;77;21499;-65
2020/12/30 07:02:01;;;;;;;1999.90;999.90;;;;;;;0.39;100.00;101568.41;1836159;77;22279;-65
2020/12/30 07:04:31;;;;;;;1999.90;999.90;;;;;;;0.41;100.00;101566.82;1824695;77;20976;-72
2020/12/30 07:06:59;;;;;;;1999.90;999.90;;;;;;;0.41;100.00;101568.19;1822528;77;21103;-72
2020/12/30 07:09:38;;;;;;;1999.90;999.90;;;;;;;0.43;100.00;101575.61;1839249;77;21115;-71
2020/12/30 07:12:06;;;;;;;1999.90;999.90;;;;;;;0.47;100.00;101584.49;1833094;77;20972;-66
2020/12/30 07:14:36;;;;;;;1999.90;999.90;;;;;;;0.51;100.00;101583.01;1840321;77;21374;-67
2020/12/30 07:17:06;;;;;;;1999.90;999.90;;;;;;;0.52;100.00;101583.31;1835275;77;20992;-65
2020/12/30 07:19:38;;;;;;;1999.90;999.90;;;;;;;0.53;100.00;101584.98;1837098;76;21029;-65
2020/12/30 07:22:14;;;;;;;1999.90;999.90;;;;;;;0.55;100.00;101592.41;1824310;77;20909;-65
2020/12/30 07:24:52;;;;;;;1999.90;999.90;;;;;;;0.55;100.00;101593.77;1842872;77;21201;-65
2020/12/30 07:27:21;;;;;;;1999.90;999.90;;;;;;;0.54;100.00;101589.37;1830768;77;21363;-65
2020/12/30 07:29:49;;;;;;;1999.90;999.90;;;;;;;0.56;100.00;101590.53;1842499;76;20965;-72
2020/12/30 07:32:18;;;;;;;1999.90;999.90;;;;;;;0.55;100.00;101588.33;1827275;77;21103;-66
2020/12/30 07:34:49;;;;;;;1999.90;999.90;;;;;;;0.55;100.00;101591.58;1840160;76;20953;-65
2020/12/30 07:37:17;;;;;;;1999.90;999.90;;;;;;;0.56;100.00;101596.81;1837347;77;21114;-64
2020/12/30 07:39:46;;;;;;;1999.90;999.90;;;;;;;0.59;100.00;101595.54;1843034;77;21534;-73
2020/12/30 07:42:19;;;;;;;1999.90;999.90;;;;;;;0.61;100.00;101597.52;1841904;77;21092;-66
2020/12/30 07:44:52;;;;;;;1999.90;999.90;;;;;;;0.62;100.00;101607.36;1833677;77;20949;-72
2020/12/30 07:47:22;;;;;;;1999.90;999.90;;;;;;;0.66;100.00;101601.79;1833481;77;21075;-70
2020/12/30 07:49:50;;;;;;;1999.90;999.90;;;;;;;0.70;100.00;101606.28;1829542;76;21067;-65
2020/12/30 07:52:18;;;;;;;1999.90;999.90;;;;;;;0.72;100.00;101612.34;1830195;76;21368;-72
2020/12/30 07:54:45;;;;;;;1999.90;999.90;;;;;;;0.71;100.00;101599.25;1825625;77;21115;-70
2020/12/30 07:57:13;;;;;;;1999.90;999.90;;;;;;;0.73;100.00;101599.86;1830914;76;21291;-73
2020/12/30 07:59:43;;;;;;;1999.90;999.90;;;;;;;0.74;100.00;101600.70;1839636;77;21101;-73
2020/12/30 08:02:12;;;;;;;1999.90;999.90;;;;;;;0.76;100.00;101603.52;1829809;76;21083;-73
2020/12/30 08:04:41;;;;;;;1999.90;999.90;;;;;;;0.77;100.00;101597.01;1830381;77;21364;-67
2020/12/30 08:07:13;;;;;;;1999.90;999.90;;;;;;;0.78;100.00;101597.32;1831532;77;20925;-72
2020/12/30 08:09:43;;;;;;;1999.90;999.90;;;;;;;0.79;100.00;101598.98;1831487;76;21205;-66
2020/12/30 08:12:12;;;;;;;1999.90;999.90;;;;;;;0.80;100.00;101603.39;1822878;77;21051;-74
2020/12/30 08:14:43;;;;;;;1999.90;999.90;;;;;;;0.83;100.00;101601.58;1841572;77;21252;-66
2020/12/30 08:17:18;;;;;;;1999.90;999.90;;;;;;;0.89;100.00;101599.34;1878281;75;22690;-65
2020/12/30 08:19:51;;;;;;;1999.90;999.90;;;;;;;0.88;100.00;101602.29;1821251;78;20929;-70
2020/12/30 08:22:30;;;;;;;1999.90;999.90;;;;;;;0.91;100.00;101603.22;1814239;78;22270;-73
2020/12/30 08:24:58;;;;;;;1999.90;999.90;;;;;;;0.90;100.00;101601.55;1814176;78;21483;-73
2020/12/30 08:27:27;;;;;;;1999.90;999.90;;;;;;;0.91;100.00;101597.77;1810310;78;21135;-73
2020/12/30 08:29:58;;;;;;;1999.90;999.90;;;;;;;0.94;100.00;101600.89;1808130;78;21071;-66
2020/12/30 08:32:38;;;;;;;1999.90;999.90;;;;;;;0.96;100.00;101594.69;1810712;78;20989;-66
2020/12/30 08:35:20;;;;;;;1999.90;999.90;;;;;;;0.96;100.00;101594.69;1822265;78;21195;-66
2020/12/30 08:38:09;;;;;;;1999.90;999.90;;;;;;;0.97;100.00;101599.61;1808339;78;20968;-66
2020/12/30 08:40:38;;;;;;;1999.90;999.90;;;;;;;0.99;100.00;101592.05;1824195;78;21122;-73
2020/12/30 08:43:37;;;;;;;1999.90;999.90;;;;;;;0.98;100.00;101593.63;1821457;78;21166;-66
2020/12/30 08:46:08;;;;;;;1999.90;999.90;;;;;;;0.98;100.00;101592.27;1823602;78;20952;-65
2020/12/30 08:48:47;;;;;;;1999.90;999.90;;;;;;;0.99;100.00;101591.22;1816263;78;21427;-65
2020/12/30 08:51:36;;;;;;;1999.90;999.90;;;;;;;1.00;100.00;101598.34;1811503;78;21106;-67
2020/12/30 08:54:17;;;;;;;1999.90;999.90;;;;;;;1.00;100.00;101595.61;1816736;78;21130;-73
2020/12/30 08:56:46;;;;;;;1999.90;999.90;;;;;;;0.98;100.00;101584.92;1810604;78;20965;-66
2020/12/30 08:59:22;;;;;;;1999.90;999.90;;;;;;;0.98;100.00;101581.37;1814715;78;21095;-65
2020/12/30 09:01:50;;;;;;;1999.90;999.90;;;;;;;0.99;100.00;101585.77;1824952;78;21354;-72
2020/12/30 09:04:18;;;;;;;1999.90;999.90;;;;;;;1.00;100.00;101588.80;1815314;78;20960;-73
2020/12/30 09:06:49;;;;;;;1999.90;999.90;;;;;;;1.03;100.00;101583.73;1810196;78;21146;-66
2020/12/30 09:09:20;;;;;;;1999.90;999.90;;;;;;;1.05;100.00;101582.16;1819177;78;21090;-72
2020/12/30 09:11:50;;;;;;;1999.90;999.90;;;;;;;1.07;100.00;101578.68;1813037;78;21106;-72
2020/12/30 09:14:22;;;;;;;1999.90;999.90;;;;;;;1.11;100.00;101563.55;1812660;78;21190;-66
2020/12/30 09:16:57;;;;;;;1999.90;999.90;;;;;;;1.13;100.00;101566.89;1810739;78;20980;-73
2020/12/30 09:19:25;;;;;;;1999.90;999.90;;;;;;;1.16;100.00;101565.08;1811140;78;20992;-66
2020/12/30 09:22:11;;;;;;;1999.90;999.90;;;;;;;1.18;100.00;101572.52;1818193;78;21086;-73
2020/12/30 09:24:40;;;;;;;1999.90;999.90;;;;;;;1.20;100.00;101570.39;1824267;78;20952;-72
2020/12/30 09:27:20;;;;;;;1999.90;999.90;;;;;;;1.24;100.00;101570.26;1821011;78;22174;-66
2020/12/30 09:30:14;;;;;;;1999.90;999.90;;;;;;;1.26;100.00;101557.23;1813723;78;21094;-66
2020/12/30 09:32:44;;;;;;;1999.90;999.90;;;;;;;1.27;100.00;101561.63;1823050;78;21024;-66
2020/12/30 09:35:14;;;;;;;1999.90;999.90;;;;;;;1.29;100.00;101552.17;1816213;78;21135;-72
2020/12/30 09:37:52;;;;;;;1999.90;999.90;;;;;;;1.32;100.00;101556.34;1821818;78;20984;-72
2020/12/30 09:40:28;;;;;;;1999.90;999.90;;;;;;;1.38;100.00;101552.72;1814000;76;22748;-73
2020/12/30 09:43:12;;;;;;;1999.90;999.90;;;;;;;1.36;100.00;101549.38;1768066;79;20992;-66
2020/12/30 09:45:40;;;;;;;1999.90;999.90;;;;;;;1.40;100.00;101559.32;1770961;80;22106;-70
2020/12/30 09:48:14;;;;;;;1999.90;999.90;;;;;;;1.40;100.00;101557.42;1768917;80;20983;-73
2020/12/30 09:50:43;;;;;;;1999.90;999.90;;;;;;;1.42;100.00;101547.66;1768100;79;21043;-73
2020/12/30 09:53:11;;;;;;;1999.90;999.90;;;;;;;1.43;100.00;101544.70;1771993;79;21467;-73
2020/12/30 09:55:41;;;;;;;1999.90;999.90;;;;;;;1.40;100.00;101538.33;1769703;79;20948;-66
2020/12/30 09:58:08;;;;;;;1999.90;999.90;;;;;;;1.39;100.00;101544.84;1773449;80;21296;-73
2020/12/30 10:00:36;;;;;;;1999.90;999.90;;;;;;;1.37;100.00;101536.05;1771875;80;20964;-66
2020/12/30 10:03:04;;;;;;;1999.90;999.90;;;;;;;1.35;100.00;101533.24;1779943;80;21551;-65
2020/12/30 10:05:32;;;;;;;1999.90;999.90;;;;;;;1.35;100.00;101541.42;1758241;80;21000;-66
2020/12/30 10:07:59;;;;;;;1999.90;999.90;;;;;;;1.37;100.00;101540.14;1767810;79;21566;-73
2020/12/30 10:10:27;;;;;;;1999.90;999.90;;;;;;;1.40;100.00;101542.95;1762712;80;21367;-66
2020/12/30 10:12:55;;;;;;;1999.90;999.90;;;;;;;1.41;100.00;101531.82;1782070;80;21590;-70
2020/12/30 10:15:23;;;;;;;1999.90;999.90;;;;;;;1.41;100.00;101541.89;1758617;79;21008;-70
2020/12/30 10:17:51;;;;;;;1999.90;999.90;;;;;;;1.42;100.00;101551.22;1769832;79;21031;-72
2020/12/30 10:20:18;;;;;;;1999.90;999.90;;;;;;;1.43;100.00;101533.80;1765238;80;20957;-67
2020/12/30 10:22:47;;;;;;;1999.90;999.90;;;;;;;1.43;100.00;101526.97;1760897;80;21386;-72
2020/12/30 10:25:15;;;;;;;1999.90;999.90;;;;;;;1.43;100.00;101524.24;1766431;80;21123;-66
2020/12/30 10:27:45;;;;;;;1999.90;999.90;;;;;;;1.44;100.00;101526.45;1764689;80;21034;-72
2020/12/30 10:30:12;;;;;;;1999.90;999.90;;;;;;;1.44;100.00;101531.90;1764888;79;21366;-66
2020/12/30 10:32:40;;;;;;;1999.90;999.90;;;;;;;1.46;100.00;101532.51;1765126;79;21148;-72
2020/12/30 10:35:08;;;;;;;1999.90;999.90;;;;;;;1.47;100.00;101532.81;1765428;79;21377;-73
2020/12/30 10:37:36;;;;;;;1999.90;999.90;;;;;;;1.48;100.00;101530.39;1764687;80;21146;-66
2020/12/30 10:40:04;;;;;;;1999.90;999.90;;;;;;;1.50;100.00;101520.09;1772520;79;21015;-66
2020/12/30 10:42:32;;;;;;;1999.90;999.90;;;;;;;1.48;100.00;101518.95;1783485;78;21154;-72
2020/12/30 10:45:00;;;;;;;1999.90;999.90;;;;;;;1.50;100.00;101519.56;1778140;79;21145;-71
2020/12/30 10:47:28;;;;;;;1999.90;999.90;;;;;;;1.53;100.00;101529.19;1780458;79;21377;-72
2020/12/30 10:49:56;;;;;;;1999.90;999.90;;;;;;;1.55;100.00;101544.27;1776822;79;20976;-66
2020/12/30 10:52:24;;;;;;;1999.90;999.90;;;;;;;1.56;100.00;101552.77;1781552;79;21114;-66
2020/12/30 10:54:52;;;;;;;1999.90;999.90;;;;;;;1.57;100.00;101528.51;1777521;78;20988;-70
2020/12/30 10:57:21;;;;;;;1999.90;999.90;;;;;;;1.57;100.00;101544.88;1776793;79;21110;-72
2020/12/30 10:59:48;;;;;;;1999.90;999.90;;;;;;;1.59;100.00;101542.77;1773258;78;21632;-73